createdAt,value
2023-05-14T00:00:55.260Z,17.40
2023-05-14T00:03:21.888Z,17.42
2023-05-14T00:05:48.655Z,19.50
2023-05-14T00:08:15.429Z,19.17
2023-05-14T00:10:42.032Z,18.60
2023-05-14T00:13:08.739Z,16.58
2023-05-14T00:15:35.392Z,17.95
2023-05-14T00:18:02.188Z,20.10
2023-05-14T00:20:28.977Z,19.42
2023-05-14T00:22:55.720Z,24.80
2023-05-14T00:25:22.368Z,21.35
2023-05-14T00:27:48.975Z,16.35
2023-05-14T00:30:15.605Z,14.68
2023-05-14T00:32:42.224Z,18.73
2023-05-14T00:35:09.398Z,19.63
2023-05-14T00:37:36.479Z,19.38
2023-05-14T00:40:03.833Z,19.58
2023-05-14T00:42:30.466Z,18.20
2023-05-14T00:44:57.080Z,17.85
2023-05-14T00:47:24.036Z,17.80
2023-05-14T00:49:50.753Z,18.20
2023-05-14T00:52:18.128Z,19.15
2023-05-14T00:54:47.047Z,17.88
2023-05-14T00:57:13.856Z,13.93
2023-05-14T00:59:41.836Z,17.02
2023-05-14T01:02:08.563Z,19.75
2023-05-14T01:04:35.409Z,17.20
2023-05-14T01:07:20.198Z,16.20
2023-05-14T01:10:08.416Z,16.42
2023-05-14T01:12:59.592Z,20.02
2023-05-14T01:15:30.818Z,17.77
2023-05-14T01:18:01.867Z,16.10
2023-05-14T01:20:28.509Z,18.80
2023-05-14T01:22:55.188Z,21.67
2023-05-14T01:25:21.890Z,15.05
2023-05-14T01:28:09.439Z,16.27
2023-05-14T01:30:38.188Z,17.08
2023-05-14T01:33:12.008Z,15.77
2023-05-14T01:35:40.290Z,14.50
2023-05-14T01:38:09.680Z,16.77
2023-05-14T01:40:37.123Z,14.60
2023-05-14T01:43:05.074Z,17.13
2023-05-14T01:45:35.372Z,17.55
2023-05-14T01:48:02.322Z,16.80
2023-05-14T01:50:29.006Z,16.23
2023-05-14T01:52:56.809Z,13.65
2023-05-14T01:55:26.973Z,16.63
2023-05-14T01:57:54.176Z,15.25
2023-05-14T02:00:24.020Z,13.98
2023-05-14T02:02:50.964Z,14.82
2023-05-14T02:05:17.752Z,14.43
2023-05-14T02:07:44.603Z,14.52
2023-05-14T02:10:11.432Z,16.30
2023-05-14T02:12:38.226Z,13.80
2023-05-14T02:15:05.200Z,13.40
2023-05-14T02:17:31.879Z,14.00
2023-05-14T02:19:58.517Z,13.98
2023-05-14T02:22:25.163Z,13.82
2023-05-14T02:24:51.890Z,14.68
2023-05-14T02:27:18.657Z,16.50
2023-05-14T02:29:45.242Z,12.57
2023-05-14T02:32:11.931Z,13.80
2023-05-14T02:34:38.761Z,15.57
2023-05-14T02:37:05.669Z,12.88
2023-05-14T02:39:32.333Z,15.13
2023-05-14T02:41:59.076Z,12.00
2023-05-14T02:44:25.712Z,14.25
2023-05-14T02:46:52.352Z,14.15
2023-05-14T02:49:18.989Z,11.57
2023-05-14T02:51:45.696Z,15.40
2023-05-14T02:54:12.324Z,15.43
2023-05-14T02:56:38.948Z,13.23
2023-05-14T02:59:05.719Z,14.13
2023-05-14T03:01:32.832Z,14.82
2023-05-14T03:03:59.800Z,15.35
2023-05-14T03:06:26.525Z,17.25
2023-05-14T03:08:53.185Z,14.00
2023-05-14T03:11:19.811Z,15.02
2023-05-14T03:13:46.636Z,12.27
2023-05-14T03:16:13.390Z,13.57
2023-05-14T03:18:40.152Z,17.95
2023-05-14T03:21:06.815Z,14.02
2023-05-14T03:23:35.057Z,13.18
2023-05-14T03:26:02.290Z,12.73
2023-05-14T03:28:28.969Z,16.88
2023-05-14T03:30:55.810Z,12.88
2023-05-14T03:33:22.896Z,13.32
2023-05-14T03:35:49.540Z,13.23
2023-05-14T03:38:16.393Z,12.95
2023-05-14T03:40:45.279Z,12.82
2023-05-14T03:43:11.925Z,12.40
2023-05-14T03:45:38.824Z,14.05
2023-05-14T03:48:05.945Z,13.13
2023-05-14T03:50:32.692Z,14.60
2023-05-14T03:52:59.344Z,13.48
2023-05-14T03:55:25.973Z,12.18
2023-05-14T03:57:52.748Z,13.43
2023-05-14T04:00:19.647Z,13.13
2023-05-14T04:02:46.376Z,12.52
2023-05-14T04:05:13.015Z,14.77
2023-05-14T04:07:39.667Z,13.95
2023-05-14T04:10:06.943Z,11.88
2023-05-14T04:12:33.560Z,11.93
2023-05-14T04:15:00.229Z,13.68
2023-05-14T04:17:27.069Z,14.70
2023-05-14T04:19:53.752Z,11.90
2023-05-14T04:22:20.447Z,14.38
2023-05-14T04:24:47.078Z,13.75
2023-05-14T04:27:23.738Z,12.40
2023-05-14T04:29:50.705Z,12.80
2023-05-14T04:32:18.141Z,11.45
2023-05-14T04:34:45.053Z,13.43
2023-05-14T04:37:11.716Z,12.35
2023-05-14T04:39:38.573Z,11.27
2023-05-14T04:42:06.806Z,8.63
2023-05-14T04:44:34.954Z,11.60
2023-05-14T04:47:02.231Z,11.88
2023-05-14T04:49:29.201Z,9.35
2023-05-14T04:51:55.928Z,9.70
2023-05-14T04:54:22.764Z,13.93
2023-05-14T04:56:50.825Z,11.57
2023-05-14T04:59:17.445Z,9.10
2023-05-14T05:01:44.251Z,12.63
2023-05-14T05:04:11.005Z,11.65
2023-05-14T05:06:37.736Z,11.73
2023-05-14T05:09:04.649Z,12.93
2023-05-14T05:11:31.252Z,13.93
2023-05-14T05:13:57.852Z,12.43
2023-05-14T05:16:24.475Z,10.27
2023-05-14T05:18:51.179Z,12.73
2023-05-14T05:21:17.889Z,13.40
2023-05-14T05:23:44.461Z,12.77
2023-05-14T05:26:11.070Z,13.65
2023-05-14T05:28:37.679Z,12.38
2023-05-14T05:31:04.445Z,12.20
2023-05-14T05:33:31.207Z,11.15
2023-05-14T05:35:57.792Z,10.60
2023-05-14T05:38:24.441Z,11.68
2023-05-14T05:40:51.164Z,12.02
2023-05-14T05:43:18.092Z,11.18
2023-05-14T05:45:46.041Z,9.75
2023-05-14T05:48:12.798Z,10.35
2023-05-14T05:50:39.427Z,10.93
2023-05-14T05:53:06.059Z,12.55
2023-05-14T05:55:32.713Z,10.90
2023-05-14T05:57:59.383Z,11.93
2023-05-14T06:00:26.285Z,10.63
2023-05-14T06:02:53.229Z,11.13
2023-05-14T06:05:20.064Z,10.05
2023-05-14T06:07:46.719Z,12.07
2023-05-14T06:10:13.338Z,10.25
2023-05-14T06:12:40.498Z,9.20
2023-05-14T06:15:07.665Z,11.27
2023-05-14T06:17:34.433Z,12.95
2023-05-14T06:20:01.053Z,12.73
2023-05-14T06:22:27.695Z,11.18
2023-05-14T06:24:54.312Z,12.10
2023-05-14T06:27:21.005Z,12.13
2023-05-14T06:29:47.597Z,7.82
2023-05-14T06:32:15.747Z,11.32
2023-05-14T06:34:42.923Z,11.35
2023-05-14T06:37:10.552Z,9.23
2023-05-14T06:39:37.949Z,11.35
2023-05-14T06:42:05.136Z,10.35
2023-05-14T06:44:31.989Z,10.52
2023-05-14T06:46:58.618Z,10.52
2023-05-14T06:49:25.305Z,10.45
2023-05-14T06:51:52.365Z,11.45
2023-05-14T06:54:20.517Z,10.93
2023-05-14T06:56:47.256Z,11.80
2023-05-14T06:59:13.934Z,12.00
2023-05-14T07:01:41.052Z,11.90
2023-05-14T07:04:07.970Z,11.73
2023-05-14T07:06:34.876Z,10.95
2023-05-14T07:09:01.996Z,10.90
2023-05-14T07:11:28.761Z,10.77
2023-05-14T07:13:55.593Z,11.93
2023-05-14T07:16:22.342Z,11.13
2023-05-14T07:18:49.000Z,12.15
2023-05-14T07:21:15.733Z,11.60
2023-05-14T07:23:42.371Z,12.60
2023-05-14T07:26:09.063Z,10.85
2023-05-14T07:28:35.845Z,11.02
2023-05-14T07:31:05.050Z,11.38
2023-05-14T07:33:31.825Z,12.35
2023-05-14T07:35:58.626Z,9.70
2023-05-14T07:38:25.392Z,11.55
2023-05-14T07:40:52.017Z,12.57
2023-05-14T07:43:18.660Z,12.30
2023-05-14T07:45:45.641Z,13.52
2023-05-14T07:48:12.376Z,11.85
2023-05-14T07:50:40.490Z,11.52
2023-05-14T07:53:07.087Z,10.52
2023-05-14T07:55:33.760Z,11.27
2023-05-14T07:58:01.240Z,12.38
2023-05-14T08:00:27.976Z,13.07
2023-05-14T08:02:55.759Z,10.52
2023-05-14T08:05:22.656Z,9.63
2023-05-14T08:07:49.351Z,11.30
2023-05-14T08:10:15.961Z,14.43
2023-05-14T08:12:42.903Z,13.63
2023-05-14T08:15:09.974Z,11.35
2023-05-14T08:17:36.666Z,11.65
2023-05-14T08:20:03.573Z,12.95
2023-05-14T08:22:30.162Z,12.75
2023-05-14T08:24:56.817Z,14.45
2023-05-14T08:27:23.419Z,12.38
2023-05-14T08:29:50.087Z,13.90
2023-05-14T08:32:23.478Z,15.02
2023-05-14T08:34:51.861Z,12.43
2023-05-14T08:37:18.696Z,12.18
2023-05-14T08:39:45.396Z,11.90
2023-05-14T08:42:13.788Z,14.15
2023-05-14T08:44:50.142Z,12.60
2023-05-14T08:47:20.886Z,13.15
2023-05-14T08:49:52.584Z,11.35
2023-05-14T08:52:22.394Z,12.95
2023-05-14T08:54:51.152Z,13.93
2023-05-14T08:57:20.245Z,12.30
2023-05-14T08:59:47.363Z,11.65
2023-05-14T09:02:17.415Z,13.38
2023-05-14T09:04:44.939Z,12.02
2023-05-14T09:07:12.006Z,11.70
2023-05-14T09:09:38.826Z,10.65
2023-05-14T09:12:06.411Z,11.30
2023-05-14T09:14:33.496Z,12.68
2023-05-14T09:17:00.178Z,12.45
2023-05-14T09:19:27.076Z,14.00
2023-05-14T09:21:58.294Z,11.57
2023-05-14T09:24:29.086Z,10.85
2023-05-14T09:26:59.022Z,12.80
2023-05-14T09:29:26.583Z,11.90
2023-05-14T09:31:54.457Z,10.93
2023-05-14T09:34:25.333Z,13.20
2023-05-14T09:37:03.117Z,11.10
2023-05-14T09:39:30.725Z,12.75
2023-05-14T09:41:57.844Z,15.18
2023-05-14T09:44:25.665Z,14.07
2023-05-14T09:46:53.467Z,11.15
2023-05-14T09:49:20.952Z,13.25
2023-05-14T09:51:49.604Z,13.23
2023-05-14T09:54:16.877Z,12.80
2023-05-14T09:56:44.678Z,11.98
2023-05-14T09:59:11.496Z,14.98
2023-05-14T10:01:38.689Z,13.50
2023-05-14T10:04:08.033Z,18.15
2023-05-14T10:06:38.190Z,14.60
2023-05-14T10:09:09.971Z,12.10
2023-05-14T10:11:38.656Z,11.95
2023-05-14T10:14:09.353Z,11.02
2023-05-14T10:16:40.701Z,13.32
2023-05-14T10:19:12.036Z,13.38
2023-05-14T10:21:41.334Z,14.82
2023-05-14T10:24:09.468Z,14.02
2023-05-14T10:26:39.338Z,14.82
2023-05-14T10:29:08.368Z,17.27
2023-05-14T10:31:53.752Z,14.00
2023-05-14T10:34:38.273Z,14.98
2023-05-14T10:37:08.009Z,14.10
2023-05-14T10:39:41.515Z,17.40
2023-05-14T10:42:17.065Z,18.33
2023-05-14T10:45:02.856Z,15.82
2023-05-14T10:47:29.890Z,14.77
2023-05-14T10:49:59.445Z,11.57
2023-05-14T10:52:26.743Z,12.05
2023-05-14T10:54:55.969Z,9.63
2023-05-14T10:57:24.656Z,9.27
2023-05-14T10:59:56.790Z,8.50
2023-05-14T11:02:35.800Z,9.68
2023-05-14T11:05:15.836Z,9.15
2023-05-14T11:07:45.257Z,11.25
2023-05-14T11:10:16.988Z,8.70
2023-05-14T11:12:46.126Z,9.02
2023-05-14T11:15:16.473Z,9.13
2023-05-14T11:17:44.876Z,9.02
2023-05-14T11:20:12.170Z,8.27
2023-05-14T11:22:40.105Z,9.02
2023-05-14T11:25:07.802Z,9.70
2023-05-14T11:27:36.831Z,10.02
2023-05-14T11:30:04.096Z,8.13
2023-05-14T11:32:34.121Z,9.50
2023-05-14T11:35:00.875Z,7.88
2023-05-14T11:37:27.481Z,10.15
2023-05-14T11:39:55.972Z,9.77
2023-05-14T11:42:23.735Z,9.45
2023-05-14T11:44:52.046Z,13.55
2023-05-14T11:47:20.562Z,11.20
2023-05-14T11:49:48.617Z,11.70
2023-05-14T11:52:16.417Z,12.45
2023-05-14T11:54:44.419Z,11.18
2023-05-14T11:57:13.278Z,15.00
2023-05-14T11:59:40.322Z,12.27
2023-05-14T12:02:18.799Z,12.55
2023-05-14T12:04:50.722Z,11.43
2023-05-14T12:07:17.477Z,12.57
2023-05-14T12:09:49.416Z,10.45
2023-05-14T12:12:21.925Z,10.25
2023-05-14T12:14:49.633Z,10.63
2023-05-14T12:17:18.820Z,10.80
2023-05-14T12:19:47.561Z,10.85
2023-05-14T12:22:17.561Z,9.88
2023-05-14T12:24:52.509Z,9.85
2023-05-14T12:27:22.487Z,10.85
2023-05-14T12:29:49.221Z,10.07
2023-05-14T12:32:15.916Z,9.77
2023-05-14T12:34:42.794Z,8.27
2023-05-14T12:37:09.447Z,9.10
2023-05-14T12:39:36.222Z,8.52
2023-05-14T12:42:02.882Z,7.88
2023-05-14T12:44:29.582Z,8.45
2023-05-14T12:46:56.385Z,8.27
2023-05-14T12:49:23.116Z,10.57
2023-05-14T12:51:52.609Z,7.00
2023-05-14T12:54:23.445Z,8.38
2023-05-14T12:56:50.460Z,8.07
2023-05-14T12:59:17.125Z,7.35
2023-05-14T13:01:43.759Z,6.75
2023-05-14T13:04:13.900Z,6.82
2023-05-14T13:06:40.962Z,8.00
2023-05-14T13:09:08.812Z,6.03
2023-05-14T13:11:35.848Z,6.03
2023-05-14T13:14:03.161Z,5.47
2023-05-14T13:16:30.314Z,6.78
2023-05-14T13:18:57.112Z,6.15
2023-05-14T13:21:23.868Z,5.93
2023-05-14T13:23:50.748Z,5.68
2023-05-14T13:26:17.474Z,6.30
2023-05-14T13:28:44.696Z,5.75
2023-05-14T13:31:13.164Z,5.68
2023-05-14T13:33:44.653Z,5.40
2023-05-14T13:36:13.592Z,5.10
2023-05-14T13:38:40.603Z,6.05
2023-05-14T13:41:07.289Z,5.65
2023-05-14T13:43:35.353Z,5.68
2023-05-14T13:46:03.281Z,4.20
2023-05-14T13:48:31.114Z,4.40
2023-05-14T13:50:57.959Z,5.07
2023-05-14T13:53:25.438Z,4.60
2023-05-14T13:55:58.595Z,3.80
2023-05-14T14:00:52.843Z,4.63
2023-05-14T14:03:19.884Z,4.03
2023-05-14T14:05:46.560Z,4.05
2023-05-14T14:10:48.595Z,3.72
2023-05-14T14:13:15.371Z,4.60
2023-05-14T14:15:42.714Z,4.00
2023-05-14T14:18:09.357Z,4.35
2023-05-14T14:20:36.339Z,3.97
2023-05-14T14:23:02.992Z,4.88
2023-05-14T14:25:29.607Z,4.97
2023-05-14T14:27:56.380Z,5.47
2023-05-14T14:30:22.972Z,4.28
2023-05-14T14:32:50.021Z,4.15
2023-05-14T14:35:18.174Z,5.53
2023-05-14T14:37:49.083Z,4.10
2023-05-14T14:40:16.711Z,4.85
2023-05-14T14:42:44.070Z,3.53
2023-05-14T14:45:11.655Z,3.80
2023-05-14T14:47:38.517Z,3.38
2023-05-14T14:50:06.255Z,6.47
2023-05-14T14:52:33.121Z,4.20
2023-05-14T14:54:59.720Z,4.15
2023-05-14T14:57:26.900Z,2.85
2023-05-14T14:59:53.590Z,4.13
2023-05-14T15:02:20.358Z,4.47
2023-05-14T15:04:47.002Z,4.40
2023-05-14T15:07:15.951Z,2.97
2023-05-14T15:09:42.692Z,3.38
2023-05-14T15:12:10.877Z,3.78
2023-05-14T15:14:37.554Z,3.20
2023-05-14T15:17:04.499Z,2.80
2023-05-14T15:19:32.362Z,2.72
2023-05-14T15:21:59.134Z,3.78
2023-05-14T15:24:26.278Z,3.70
2023-05-14T15:26:53.780Z,3.50
2023-05-14T15:29:20.569Z,3.75
2023-05-14T15:31:47.449Z,4.43
2023-05-14T15:34:14.199Z,4.20
2023-05-14T15:36:40.971Z,3.90
2023-05-14T15:39:10.314Z,4.20
2023-05-14T15:41:38.056Z,4.05
2023-05-14T15:44:04.961Z,2.67
2023-05-14T15:46:32.279Z,3.67
2023-05-14T15:48:58.917Z,2.83
2023-05-14T15:51:25.593Z,3.47
2023-05-14T15:53:54.216Z,4.05
2023-05-14T15:56:23.226Z,3.92
2023-05-14T15:58:49.985Z,4.30
2023-05-14T16:01:17.019Z,3.40
2023-05-14T16:03:43.846Z,3.85
2023-05-14T16:06:11.599Z,3.53
2023-05-14T16:08:38.647Z,3.88
2023-05-14T16:11:06.405Z,3.40
2023-05-14T16:13:33.810Z,3.03
2023-05-14T16:16:01.294Z,3.53
2023-05-14T16:18:28.055Z,4.15
2023-05-14T16:20:54.745Z,3.38
2023-05-14T16:23:21.633Z,3.17
2023-05-14T16:25:48.409Z,4.43
2023-05-14T16:28:15.212Z,3.58
2023-05-14T16:30:41.861Z,3.65
2023-05-14T16:33:08.503Z,3.20
2023-05-14T16:35:35.209Z,2.55
2023-05-14T16:38:01.828Z,4.20
2023-05-14T16:40:28.496Z,3.03
2023-05-14T16:42:55.109Z,3.45
2023-05-14T16:45:21.953Z,4.20
2023-05-14T16:47:48.812Z,2.63
2023-05-14T16:50:15.502Z,4.10
2023-05-14T16:52:42.313Z,3.10
2023-05-14T16:55:09.421Z,3.08
2023-05-14T16:57:36.084Z,3.90
2023-05-14T17:00:06.199Z,2.47
2023-05-14T17:02:33.677Z,3.42
2023-05-14T17:05:00.575Z,4.00
2023-05-14T17:07:27.414Z,3.25
2023-05-14T17:09:54.104Z,3.33
2023-05-14T17:12:20.789Z,3.33
2023-05-14T17:14:47.432Z,3.15
2023-05-14T17:17:14.054Z,2.88
2023-05-14T17:19:41.038Z,3.80
2023-05-14T17:22:07.645Z,3.17
2023-05-14T17:24:35.557Z,2.97
2023-05-14T17:27:02.216Z,4.47
2023-05-14T17:29:28.822Z,8.52
2023-05-14T17:31:55.671Z,3.90
2023-05-14T17:34:22.335Z,3.38
2023-05-14T17:36:49.004Z,5.35
2023-05-14T17:39:16.056Z,5.53
2023-05-14T17:41:42.794Z,4.13
2023-05-14T17:44:11.320Z,3.03
2023-05-14T17:46:39.447Z,2.40
2023-05-14T17:49:06.143Z,2.85
2023-05-14T17:51:32.859Z,3.05
2023-05-14T17:53:59.695Z,2.80
2023-05-14T17:56:26.278Z,4.75
2023-05-14T17:58:52.900Z,3.45
2023-05-14T18:01:19.574Z,2.33
2023-05-14T18:03:46.222Z,3.05
2023-05-14T18:06:13.033Z,2.53
2023-05-14T18:08:39.627Z,2.55
2023-05-14T18:11:06.342Z,5.18
2023-05-14T18:13:33.012Z,2.42
2023-05-14T18:16:00.775Z,3.20
2023-05-14T18:18:27.612Z,4.40
2023-05-14T18:20:54.280Z,4.13
2023-05-14T18:23:20.971Z,3.42
2023-05-14T18:25:48.270Z,3.08
2023-05-14T18:28:15.637Z,2.92
2023-05-14T18:30:43.566Z,3.55
2023-05-14T18:33:10.520Z,3.30
2023-05-14T18:35:37.366Z,2.67
2023-05-14T18:38:04.143Z,4.32
2023-05-14T18:40:30.788Z,4.72
2023-05-14T18:42:58.123Z,3.15
2023-05-14T18:45:25.072Z,3.13
2023-05-14T18:47:52.129Z,3.45
2023-05-14T18:50:19.034Z,3.28
2023-05-14T18:52:45.636Z,2.95
2023-05-14T18:55:12.300Z,3.67
2023-05-14T18:57:39.034Z,4.78
2023-05-14T19:00:06.504Z,4.28
2023-05-14T19:02:33.211Z,3.03
2023-05-14T19:04:59.888Z,3.47
2023-05-14T19:07:27.754Z,5.47
2023-05-14T19:09:54.396Z,4.75
2023-05-14T19:12:21.053Z,4.65
2023-05-14T19:14:47.651Z,6.10
2023-05-14T19:17:14.433Z,3.95
2023-05-14T19:19:41.121Z,5.30
2023-05-14T19:22:07.885Z,4.82
2023-05-14T19:24:34.584Z,5.85
2023-05-14T19:27:01.229Z,5.35
2023-05-14T19:29:27.852Z,4.43
2023-05-14T19:31:54.487Z,4.43
2023-05-14T19:34:21.586Z,4.07
2023-05-14T19:36:48.245Z,3.88
2023-05-14T19:39:14.836Z,3.90
2023-05-14T19:41:41.681Z,4.43
2023-05-14T19:44:08.308Z,3.97
2023-05-14T19:46:35.060Z,4.20
2023-05-14T19:49:01.687Z,3.17
2023-05-14T19:51:28.330Z,3.65
2023-05-14T19:53:54.980Z,3.45
2023-05-14T19:56:23.160Z,3.35
2023-05-14T19:58:51.102Z,4.10
2023-05-14T20:01:17.847Z,3.40
2023-05-14T20:03:44.550Z,2.90
2023-05-14T20:06:11.406Z,3.80
2023-05-14T20:08:38.056Z,3.20
2023-05-14T20:11:04.783Z,3.20
2023-05-14T20:13:36.505Z,3.60
2023-05-14T20:16:03.269Z,4.70
2023-05-14T20:18:30.029Z,3.53
2023-05-14T20:20:56.768Z,3.63
2023-05-14T20:23:23.373Z,4.00
2023-05-14T20:25:51.344Z,3.88
2023-05-14T20:28:18.037Z,3.67
2023-05-14T20:30:44.699Z,4.20
2023-05-14T20:33:12.969Z,3.03
2023-05-14T20:35:41.622Z,4.00
2023-05-14T20:38:08.236Z,4.22
2023-05-14T20:40:34.877Z,3.15
2023-05-14T20:43:01.926Z,3.13
2023-05-14T20:45:28.521Z,3.78
2023-05-14T20:47:55.266Z,3.42
2023-05-14T20:50:22.717Z,3.25
2023-05-14T20:52:49.346Z,3.28
2023-05-14T20:55:16.079Z,3.65
2023-05-14T20:57:43.594Z,2.78
2023-05-14T21:00:11.113Z,4.90
2023-05-14T21:02:37.991Z,3.90
2023-05-14T21:05:05.146Z,3.55
2023-05-14T21:07:31.820Z,3.45
2023-05-14T21:09:58.688Z,3.17
2023-05-14T21:12:25.328Z,4.32
2023-05-14T21:14:51.930Z,4.38
2023-05-14T21:17:18.568Z,4.18
2023-05-14T21:19:45.204Z,3.95
2023-05-14T21:22:12.799Z,4.20
2023-05-14T21:24:39.413Z,3.40
2023-05-14T21:27:06.184Z,4.15
2023-05-14T21:29:32.776Z,3.10
2023-05-14T21:31:59.451Z,3.53
2023-05-14T21:34:26.156Z,4.93
2023-05-14T21:36:53.040Z,4.10
2023-05-14T21:39:20.037Z,3.30
2023-05-14T21:41:46.660Z,3.38
2023-05-14T21:44:13.271Z,3.08
2023-05-14T21:46:39.999Z,3.70
2023-05-14T21:49:07.092Z,3.65
2023-05-14T21:51:33.763Z,3.42
2023-05-14T21:54:00.452Z,3.00
2023-05-14T21:56:27.386Z,3.90
2023-05-14T21:58:56.105Z,4.22
2023-05-14T22:01:23.178Z,6.38
2023-05-14T22:03:50.028Z,3.63
2023-05-14T22:06:16.787Z,4.03
2023-05-14T22:08:43.492Z,4.75
2023-05-14T22:11:10.115Z,3.55
2023-05-14T22:13:40.891Z,4.88
2023-05-14T22:16:13.734Z,6.50
2023-05-14T22:21:07.427Z,5.40
2023-05-14T22:23:34.268Z,5.00
2023-05-14T22:26:01.012Z,5.65
2023-05-14T22:28:27.649Z,5.32
2023-05-14T22:30:54.441Z,5.60
2023-05-14T22:33:21.145Z,5.47
2023-05-14T22:35:47.787Z,5.30
2023-05-14T22:38:14.409Z,4.68
2023-05-14T22:40:41.025Z,5.18
2023-05-14T22:43:07.676Z,5.70
2023-05-14T22:45:34.317Z,5.15
2023-05-14T22:48:00.938Z,4.45
2023-05-14T22:50:27.600Z,5.07
2023-05-14T22:52:54.204Z,4.78
2023-05-14T22:55:21.222Z,5.50
2023-05-14T22:57:47.986Z,6.40
2023-05-14T23:00:15.349Z,5.88
2023-05-14T23:02:42.119Z,5.30
2023-05-14T23:05:09.322Z,6.13
2023-05-14T23:07:36.040Z,5.05
2023-05-14T23:10:02.764Z,4.60
2023-05-14T23:12:29.449Z,5.30
2023-05-14T23:14:56.117Z,4.90
2023-05-14T23:17:22.851Z,4.97
2023-05-14T23:19:49.714Z,4.97
2023-05-14T23:22:16.457Z,4.75
2023-05-14T23:24:43.159Z,4.45
2023-05-14T23:27:11.421Z,4.68
2023-05-14T23:29:38.525Z,4.93
2023-05-14T23:32:05.585Z,5.00
2023-05-14T23:34:33.113Z,4.65
2023-05-14T23:36:59.850Z,4.95
2023-05-14T23:39:26.585Z,5.97
2023-05-14T23:41:53.193Z,5.55
2023-05-14T23:44:19.845Z,4.45
2023-05-14T23:46:46.584Z,4.88
2023-05-14T23:49:13.220Z,6.60
2023-05-14T23:51:39.812Z,4.65
2023-05-14T23:54:06.465Z,5.72
2023-05-14T23:56:33.701Z,5.93
2023-05-14T23:59:00.458Z,4.25
